createdAt,value
2023-04-05T00:05:12.092Z,0.13
2023-04-05T00:15:37.727Z,-0.09
2023-04-05T00:26:03.749Z,-0.19
2023-04-05T00:36:29.753Z,-0.14
2023-04-05T00:46:56.234Z,-0.08
2023-04-05T00:57:22.260Z,-0.29
2023-04-05T01:07:55.678Z,-0.45
2023-04-05T01:18:22.348Z,-0.36
2023-04-05T01:29:30.480Z,-0.55
2023-04-05T01:39:57.049Z,-0.54
2023-04-05T01:50:23.249Z,-0.55
2023-04-05T02:00:49.466Z,-0.49
2023-04-05T02:11:16.118Z,-0.41
2023-04-05T02:21:42.260Z,-0.43
2023-04-05T02:32:09.025Z,-0.49
2023-04-05T02:42:34.563Z,-0.45
2023-04-05T02:53:01.364Z,-0.44
2023-04-05T03:03:29.124Z,-0.39
2023-04-05T03:13:55.268Z,-0.23
2023-04-05T03:24:21.130Z,-0.06
2023-04-05T03:34:47.297Z,-0.04
2023-04-05T03:45:13.488Z,0.04
2023-04-05T03:55:50.626Z,0.01
2023-04-05T04:06:19.150Z,-0.01
2023-04-05T04:16:45.934Z,-0.07
2023-04-05T04:27:12.388Z,0.00
2023-04-05T04:37:38.467Z,0.03
2023-04-05T04:48:05.200Z,-0.53
2023-04-05T04:58:31.480Z,-0.82
2023-04-05T05:08:57.729Z,-0.65
2023-04-05T05:19:23.871Z,-0.50
2023-04-05T05:29:49.478Z,-0.58
2023-04-05T05:40:16.419Z,-0.42
2023-04-05T05:50:42.273Z,-0.11
2023-04-05T06:01:08.947Z,0.11
2023-04-05T06:11:38.850Z,0.44
2023-04-05T06:22:08.093Z,0.56
2023-04-05T06:32:33.450Z,0.64
2023-04-05T06:42:59.650Z,0.79
2023-04-05T06:53:27.756Z,0.84
2023-04-05T07:03:53.432Z,1.04
2023-04-05T07:14:19.731Z,1.52
2023-04-05T07:24:46.301Z,2.38
2023-04-05T07:35:12.776Z,3.10
2023-04-05T07:45:38.084Z,3.77
2023-04-05T07:56:06.563Z,4.31
2023-04-05T08:06:32.459Z,4.49
2023-04-05T08:16:58.375Z,4.84
2023-04-05T08:27:23.976Z,4.87
2023-04-05T08:37:50.184Z,4.75
2023-04-05T08:48:16.973Z,4.79
2023-04-05T08:58:49.654Z,4.40
2023-04-05T09:09:17.748Z,4.02
2023-04-05T09:19:43.917Z,4.08
2023-04-05T09:30:25.101Z,3.93
2023-04-05T09:40:52.665Z,4.00
2023-04-05T09:51:18.785Z,4.10
2023-04-05T10:01:52.912Z,4.01
2023-04-05T10:12:27.129Z,4.11
2023-04-05T10:23:08.602Z,4.41
2023-04-05T10:33:42.831Z,4.54
2023-04-05T10:44:18.868Z,4.45
2023-04-05T10:54:53.780Z,4.74
2023-04-05T11:05:37.912Z,5.03
2023-04-05T11:16:13.212Z,4.97
2023-04-05T11:26:56.830Z,4.86
2023-04-05T11:37:45.947Z,4.97
2023-04-05T11:48:13.452Z,4.89
2023-04-05T11:58:39.737Z,5.00
2023-04-05T12:09:10.168Z,5.32
2023-04-05T12:19:37.784Z,5.68
2023-04-05T12:30:15.856Z,5.66
2023-04-05T12:40:43.782Z,5.33
2023-04-05T12:51:18.036Z,5.34
2023-04-05T13:01:44.120Z,5.57
2023-04-05T13:12:09.871Z,5.52
2023-04-05T13:22:35.925Z,5.29
2023-04-05T13:33:02.008Z,5.27
2023-04-05T13:43:28.309Z,5.37
2023-04-05T13:53:54.293Z,5.61
2023-04-05T14:04:20.469Z,5.74
2023-04-05T14:14:47.165Z,5.79
2023-04-05T14:25:13.407Z,5.76
2023-04-05T14:35:38.856Z,5.71
2023-04-05T14:46:04.413Z,5.73
2023-04-05T14:56:30.694Z,5.74
2023-04-05T15:06:56.509Z,5.70
2023-04-05T15:17:23.126Z,5.61
2023-04-05T15:27:48.622Z,5.62
2023-04-05T15:38:14.704Z,5.68
2023-04-05T15:48:40.845Z,5.83
2023-04-05T15:59:06.676Z,5.84
2023-04-05T16:09:32.656Z,5.78
2023-04-05T16:19:58.782Z,5.73
2023-04-05T16:30:24.352Z,5.58
2023-04-05T16:40:50.027Z,5.36
2023-04-05T16:51:16.203Z,5.30
2023-04-05T17:13:26.351Z,5.22
2023-04-05T17:23:52.503Z,5.24
2023-04-05T17:34:18.201Z,5.29
2023-04-05T17:44:43.811Z,5.23
2023-04-05T17:55:11.263Z,5.11
2023-04-05T18:05:37.793Z,5.04
2023-04-05T18:16:03.587Z,4.82
2023-04-05T18:26:30.130Z,4.65
2023-04-05T18:36:55.790Z,4.44
2023-04-05T18:47:21.727Z,4.42
2023-04-05T18:57:47.433Z,4.49
2023-04-05T19:08:13.262Z,4.51
2023-04-05T19:18:39.116Z,4.50
2023-04-05T19:29:05.578Z,4.35
2023-04-05T19:39:31.446Z,4.19
2023-04-05T19:49:58.561Z,4.01
2023-04-05T20:00:36.202Z,3.88
2023-04-05T20:11:01.813Z,3.85
2023-04-05T20:21:28.725Z,3.57
2023-04-05T20:31:54.941Z,3.35
2023-04-05T20:42:20.523Z,3.11
2023-04-05T20:52:46.906Z,3.01
2023-04-05T21:03:13.627Z,2.78
2023-04-05T21:13:39.310Z,2.73
2023-04-05T21:24:05.550Z,2.62
2023-04-05T21:34:31.330Z,2.50
2023-04-05T21:44:57.062Z,2.56
2023-04-05T21:55:22.872Z,2.32
2023-04-05T22:05:49.254Z,2.34
2023-04-05T22:16:15.063Z,2.27
2023-04-05T22:26:43.045Z,2.13
2023-04-05T22:37:08.596Z,2.00
2023-04-05T22:47:34.574Z,1.97
2023-04-05T22:58:00.749Z,1.76
2023-04-05T23:08:27.552Z,1.59
2023-04-05T23:18:53.417Z,1.54
2023-04-05T23:29:19.807Z,1.41
2023-04-05T23:39:45.797Z,1.30
2023-04-05T23:50:13.264Z,1.39
